Time;durP1;ratioP1;P1;durP2;ratioP2;P2;SDS_P1;SDS_P2;PMS_P1;PMS_P2;Temp;Humidity;BMP_temperature;BMP_pressure;BME280_temperature;BME280_humidity;BME280_pressure;Samples;Min_cycle;Max_cycle;Signal;HPM_P1;HPM_P2
2023/05/14 00:01:07;;;;;;;11.15;8.13;;;;;;;;;;5037911;28;20098;-62
2023/05/14 00:03:32;;;;;;;9.05;7.90;;;;;;;;;;5021060;28;20524;-62
2023/05/14 00:05:57;;;;;;;12.20;8.10;;;;;;;;;;5055897;28;20041;-62
2023/05/14 00:08:23;;;;;;;11.98;7.60;;;;;;;;;;5055556;28;20025;-62
2023/05/14 00:10:48;;;;;;;9.40;7.65;;;;;;;;;;5055743;28;20044;-62
2023/05/14 00:13:13;;;;;;;8.90;8.00;;;;;;;;;;5037886;28;20059;-62
2023/05/14 00:15:39;;;;;;;11.10;8.13;;;;;;;;;;5037564;28;20033;-62
2023/05/14 00:18:04;;;;;;;10.15;8.68;;;;;;;;;;5055023;28;20021;-62
2023/05/14 00:20:30;;;;;;;9.18;7.10;;;;;;;;;;5054988;28;20052;-62
2023/05/14 00:22:55;;;;;;;8.35;7.15;;;;;;;;;;5055679;28;20051;-62
2023/05/14 00:25:20;;;;;;;8.50;6.50;;;;;;;;;;5054907;28;20028;-62
2023/05/14 00:27:46;;;;;;;9.80;6.90;;;;;;;;;;5055122;28;20183;-62
2023/05/14 00:30:11;;;;;;;7.13;6.35;;;;;;;;;;5055315;28;20053;-62
2023/05/14 00:32:37;;;;;;;8.10;6.20;;;;;;;;;;5037334;28;20044;-61
2023/05/14 00:35:03;;;;;;;6.45;5.75;;;;;;;;;;5054928;28;20412;-61
2023/05/14 00:37:28;;;;;;;7.18;6.00;;;;;;;;;;5037232;28;20457;-61
2023/05/14 00:39:54;;;;;;;8.45;6.22;;;;;;;;;;5054363;28;20080;-61
2023/05/14 00:42:19;;;;;;;8.57;6.07;;;;;;;;;;5054950;28;20108;-62
2023/05/14 00:44:44;;;;;;;8.30;5.68;;;;;;;;;;5036649;28;20021;-62
2023/05/14 00:47:10;;;;;;;8.00;6.68;;;;;;;;;;5054816;28;20037;-62
2023/05/14 00:49:35;;;;;;;7.28;6.38;;;;;;;;;;5054684;28;20035;-62
2023/05/14 00:52:01;;;;;;;6.72;6.05;;;;;;;;;;5036986;28;20469;-62
2023/05/14 00:54:27;;;;;;;7.32;6.07;;;;;;;;;;5036534;28;20373;-62
2023/05/14 00:56:52;;;;;;;8.48;6.82;;;;;;;;;;5054438;28;20029;-62
2023/05/14 00:59:19;;;;;;;9.57;6.68;;;;;;;;;;5054855;28;20060;-62
2023/05/14 01:01:44;;;;;;;8.05;6.60;;;;;;;;;;5036900;28;20099;-62
2023/05/14 01:04:10;;;;;;;7.03;6.32;;;;;;;;;;5054880;28;20052;-61
2023/05/14 01:06:43;;;;;;;7.38;6.60;;;;;;;;;;5054176;28;20102;-61
2023/05/14 01:09:17;;;;;;;7.57;6.88;;;;;;;;;;5054043;28;20475;-61
2023/05/14 01:11:59;;;;;;;8.68;6.70;;;;;;;;;;5054280;28;20488;-60
2023/05/14 01:14:44;;;;;;;7.53;6.32;;;;;;;;;;5036341;28;20480;-61
2023/05/14 01:17:10;;;;;;;9.52;6.50;;;;;;;;;;5036050;28;20120;-62
2023/05/14 01:19:40;;;;;;;10.45;6.35;;;;;;;;;;5054241;28;20083;-61
2023/05/14 01:22:05;;;;;;;8.65;6.78;;;;;;;;;;5054222;28;20040;-60
2023/05/14 01:24:31;;;;;;;7.00;5.88;;;;;;;;;;5036004;28;20029;-61
2023/05/14 01:27:00;;;;;;;7.88;6.20;;;;;;;;;;5036347;28;20025;-62
2023/05/14 01:29:26;;;;;;;6.97;6.15;;;;;;;;;;5035768;28;20055;-62
2023/05/14 01:31:54;;;;;;;7.65;6.55;;;;;;;;;;5035937;28;20051;-62
2023/05/14 01:34:21;;;;;;;7.20;6.00;;;;;;;;;;5053642;28;20041;-61
2023/05/14 01:36:47;;;;;;;7.32;6.45;;;;;;;;;;5035707;28;20384;-62
2023/05/14 01:39:14;;;;;;;7.93;6.30;;;;;;;;;;5035812;28;20025;-62
2023/05/14 01:41:39;;;;;;;7.15;6.30;;;;;;;;;;5053913;28;20031;-61
2023/05/14 01:44:05;;;;;;;8.45;6.47;;;;;;;;;;5053551;28;20021;-61
2023/05/14 01:46:31;;;;;;;6.95;6.10;;;;;;;;;;5054038;28;20041;-61
2023/05/14 01:48:57;;;;;;;10.85;6.53;;;;;;;;;;5053789;28;20079;-61
2023/05/14 01:51:22;;;;;;;7.57;6.00;;;;;;;;;;5035484;28;20025;-62
2023/05/14 01:53:48;;;;;;;6.55;5.80;;;;;;;;;;5099521;22;20453;-61
2023/05/14 01:56:13;;;;;;;6.47;5.88;;;;;;;;;;5071757;28;20024;-61
2023/05/14 01:58:39;;;;;;;6.85;6.15;;;;;;;;;;5054642;28;20029;-61
2023/05/14 02:01:04;;;;;;;7.75;6.50;;;;;;;;;;5055398;28;20056;-61
2023/05/14 02:03:31;;;;;;;7.78;5.97;;;;;;;;;;5073272;28;20380;-61
2023/05/14 02:05:56;;;;;;;8.40;5.95;;;;;;;;;;5073435;28;20115;-61
2023/05/14 02:08:21;;;;;;;7.32;6.22;;;;;;;;;;5073236;28;20424;-61
2023/05/14 02:10:47;;;;;;;7.35;6.30;;;;;;;;;;5038780;28;20099;-62
2023/05/14 02:13:12;;;;;;;8.77;5.78;;;;;;;;;;5073306;28;20027;-62
2023/05/14 02:15:38;;;;;;;6.22;5.63;;;;;;;;;;5038488;28;20055;-62
2023/05/14 02:18:03;;;;;;;6.80;5.80;;;;;;;;;;5073265;28;20035;-61
2023/05/14 02:20:29;;;;;;;6.13;5.53;;;;;;;;;;5055444;28;20383;-61
2023/05/14 02:22:54;;;;;;;6.45;5.78;;;;;;;;;;5055404;28;20037;-60
2023/05/14 02:25:19;;;;;;;6.65;5.93;;;;;;;;;;5055226;28;20536;-62
2023/05/14 02:27:44;;;;;;;6.50;5.80;;;;;;;;;;5055324;28;20040;-62
2023/05/14 02:30:10;;;;;;;7.10;5.82;;;;;;;;;;5073126;28;20052;-62
2023/05/14 02:32:35;;;;;;;6.32;5.20;;;;;;;;;;5055676;28;20387;-60
2023/05/14 02:35:01;;;;;;;7.80;5.45;;;;;;;;;;5073146;28;20422;-61
2023/05/14 02:37:27;;;;;;;6.07;5.57;;;;;;;;;;5077143;23;20060;-62
2023/05/14 02:39:52;;;;;;;7.85;5.70;;;;;;;;;;5093327;28;20058;-61
2023/05/14 02:42:18;;;;;;;5.30;4.80;;;;;;;;;;5093349;28;20013;-62
2023/05/14 02:44:43;;;;;;;6.32;5.28;;;;;;;;;;5093404;28;20379;-63
2023/05/14 02:47:12;;;;;;;5.90;5.28;;;;;;;;;;5075887;28;20118;-63
2023/05/14 02:49:39;;;;;;;5.47;4.97;;;;;;;;;;5058378;28;20032;-63
2023/05/14 02:52:04;;;;;;;5.63;4.60;;;;;;;;;;5093753;28;20036;-63
2023/05/14 02:54:29;;;;;;;5.65;5.15;;;;;;;;;;5074997;28;20368;-63
2023/05/14 02:56:55;;;;;;;5.05;4.60;;;;;;;;;;5092932;28;20127;-63
2023/05/14 02:59:20;;;;;;;6.45;4.85;;;;;;;;;;5075031;28;20020;-63
2023/05/14 03:01:45;;;;;;;5.10;4.65;;;;;;;;;;5075166;28;20500;-63
2023/05/14 03:04:11;;;;;;;5.10;4.70;;;;;;;;;;5077726;28;20049;-63
2023/05/14 03:06:36;;;;;;;6.03;5.00;;;;;;;;;;5079159;28;20043;-63
2023/05/14 03:09:01;;;;;;;5.70;4.70;;;;;;;;;;5078726;28;20028;-63
2023/05/14 03:11:27;;;;;;;5.68;4.70;;;;;;;;;;5078578;28;20490;-63
2023/05/14 03:13:52;;;;;;;5.88;4.60;;;;;;;;;;5096918;28;20031;-63
2023/05/14 03:16:17;;;;;;;5.38;4.80;;;;;;;;;;5078836;28;20051;-63
2023/05/14 03:18:43;;;;;;;6.55;4.43;;;;;;;;;;5096458;28;20384;-63
2023/05/14 03:21:08;;;;;;;5.47;4.88;;;;;;;;;;5096932;28;20451;-63
2023/05/14 03:23:34;;;;;;;6.47;5.15;;;;;;;;;;5078395;28;20471;-63
2023/05/14 03:26:00;;;;;;;4.78;4.38;;;;;;;;;;5096639;28;20039;-63
2023/05/14 03:28:25;;;;;;;4.30;3.90;;;;;;;;;;5096622;28;20055;-63
2023/05/14 03:30:51;;;;;;;4.80;4.30;;;;;;;;;;5078114;28;20043;-63
2023/05/14 03:33:16;;;;;;;5.30;4.30;;;;;;;;;;5078746;28;20023;-63
2023/05/14 03:35:41;;;;;;;5.65;4.38;;;;;;;;;;5078029;28;20023;-63
2023/05/14 03:38:17;;;;;;;4.38;3.97;;;;;;;;;;5095505;28;20036;-63
2023/05/14 03:40:45;;;;;;;4.22;3.83;;;;;;;;;;5077966;28;20056;-63
2023/05/14 03:43:10;;;;;;;3.80;3.50;;;;;;;;;;5095995;28;20430;-63
2023/05/14 03:45:36;;;;;;;3.83;3.53;;;;;;;;;;5077927;28;20032;-63
2023/05/14 03:48:01;;;;;;;3.95;3.65;;;;;;;;;;5078206;28;20486;-63
2023/05/14 03:50:29;;;;;;;3.60;3.35;;;;;;;;;;5077611;28;20063;-64
2023/05/14 03:52:55;;;;;;;3.78;3.30;;;;;;;;;;5078208;28;20020;-64
2023/05/14 03:55:20;;;;;;;3.40;3.10;;;;;;;;;;5095697;28;20391;-63
2023/05/14 03:57:49;;;;;;;5.95;3.38;;;;;;;;;;5060723;28;20046;-63
2023/05/14 04:00:14;;;;;;;3.13;2.90;;;;;;;;;;5077608;28;20127;-63
2023/05/14 04:02:43;;;;;;;3.75;3.20;;;;;;;;;;5079316;28;20031;-64
2023/05/14 04:05:08;;;;;;;3.30;3.10;;;;;;;;;;5095635;28;20024;-63
2023/05/14 04:07:33;;;;;;;3.35;3.08;;;;;;;;;;5095883;28;20024;-64
2023/05/14 04:10:12;;;;;;;3.40;3.17;;;;;;;;;;5078106;28;20360;-64
2023/05/14 04:12:38;;;;;;;4.10;3.47;;;;;;;;;;5077414;28;20160;-64
2023/05/14 04:15:04;;;;;;;3.85;3.45;;;;;;;;;;5077684;28;20462;-61
2023/05/14 04:17:29;;;;;;;3.65;3.35;;;;;;;;;;5077681;28;20016;-61
2023/05/14 04:19:55;;;;;;;4.35;3.72;;;;;;;;;;5077184;28;20029;-61
2023/05/14 04:22:20;;;;;;;3.63;3.33;;;;;;;;;;5095626;28;20494;-62
2023/05/14 04:24:46;;;;;;;5.50;3.40;;;;;;;;;;5095156;28;20410;-61
2023/05/14 04:27:18;;;;;;;5.20;3.90;;;;;;;;;;5095544;28;20024;-62
2023/05/14 04:29:43;;;;;;;4.15;3.85;;;;;;;;;;5077199;28;20050;-62
2023/05/14 04:32:09;;;;;;;4.15;3.55;;;;;;;;;;5076962;28;20050;-62
2023/05/14 04:34:35;;;;;;;4.20;3.90;;;;;;;;;;5095729;28;20028;-62
2023/05/14 04:37:02;;;;;;;4.15;3.75;;;;;;;;;;5095199;28;20133;-62
2023/05/14 04:39:27;;;;;;;3.88;3.58;;;;;;;;;;5095223;28;20042;-62
2023/05/14 04:41:53;;;;;;;3.97;3.67;;;;;;;;;;5094892;28;20543;-62
2023/05/14 04:44:18;;;;;;;4.38;3.97;;;;;;;;;;5076648;28;20387;-62
2023/05/14 04:46:43;;;;;;;4.55;3.50;;;;;;;;;;5095090;28;20062;-61
2023/05/14 04:49:09;;;;;;;3.85;3.58;;;;;;;;;;5094765;28;20024;-61
2023/05/14 04:51:34;;;;;;;4.68;3.83;;;;;;;;;;5076682;28;20028;-61
2023/05/14 04:53:59;;;;;;;3.78;3.47;;;;;;;;;;5094706;28;20016;-61
2023/05/14 04:56:25;;;;;;;4.30;3.90;;;;;;;;;;5077095;28;20036;-62
2023/05/14 04:58:51;;;;;;;4.03;3.63;;;;;;;;;;5094542;28;20415;-61
2023/05/14 05:01:16;;;;;;;4.28;3.80;;;;;;;;;;5076625;28;20027;-61
2023/05/14 05:03:41;;;;;;;4.53;3.58;;;;;;;;;;5095309;28;20440;-61
2023/05/14 05:06:07;;;;;;;4.07;3.47;;;;;;;;;;5094746;28;20036;-61
2023/05/14 05:08:36;;;;;;;3.83;3.53;;;;;;;;;;5076587;28;20059;-61
2023/05/14 05:11:02;;;;;;;5.53;3.63;;;;;;;;;;5094959;28;20043;-61
2023/05/14 05:13:28;;;;;;;3.92;3.55;;;;;;;;;;5094290;28;20024;-61
2023/05/14 05:15:54;;;;;;;3.78;3.47;;;;;;;;;;5094482;28;20024;-61
2023/05/14 05:18:20;;;;;;;4.10;3.80;;;;;;;;;;5094749;28;20020;-61
2023/05/14 05:20:45;;;;;;;4.35;3.50;;;;;;;;;;5094531;28;20478;-61
2023/05/14 05:23:11;;;;;;;3.65;3.33;;;;;;;;;;5094603;28;20024;-61
2023/05/14 05:25:36;;;;;;;3.80;3.50;;;;;;;;;;5094014;28;20506;-61
2023/05/14 05:28:01;;;;;;;3.90;3.55;;;;;;;;;;5076218;28;20379;-61
2023/05/14 05:30:27;;;;;;;3.97;2.80;;;;;;;;;;5094311;28;20097;-61
2023/05/14 05:32:52;;;;;;;3.15;2.95;;;;;;;;;;5094101;28;20036;-61
2023/05/14 05:35:18;;;;;;;3.33;3.10;;;;;;;;;;5094443;28;20074;-61
2023/05/14 05:37:44;;;;;;;3.10;2.80;;;;;;;;;;5075884;28;20513;-61
2023/05/14 05:40:09;;;;;;;3.10;2.83;;;;;;;;;;5094595;28;20030;-62
2023/05/14 05:42:35;;;;;;;3.55;2.80;;;;;;;;;;5075801;28;20032;-61
2023/05/14 05:45:00;;;;;;;3.00;2.80;;;;;;;;;;5094386;28;20027;-61
2023/05/14 05:47:25;;;;;;;5.95;4.70;;;;;;;;;;5075670;28;20039;-61
2023/05/14 05:49:51;;;;;;;3.80;3.40;;;;;;;;;;5093990;28;20040;-61
2023/05/14 05:52:16;;;;;;;3.20;3.00;;;;;;;;;;5093811;28;20027;-61
2023/05/14 05:54:41;;;;;;;3.95;2.45;;;;;;;;;;5075956;28;20448;-61
2023/05/14 05:57:07;;;;;;;3.63;2.67;;;;;;;;;;5075521;28;20142;-60
2023/05/14 05:59:32;;;;;;;2.15;2.05;;;;;;;;;;5093792;28;20020;-62
2023/05/14 06:01:57;;;;;;;2.53;2.33;;;;;;;;;;5075241;28;20032;-62
2023/05/14 06:04:23;;;;;;;2.53;2.33;;;;;;;;;;5083441;28;20024;-63
2023/05/14 06:06:48;;;;;;;2.40;2.20;;;;;;;;;;5092605;28;20032;-62
2023/05/14 06:09:13;;;;;;;2.40;2.20;;;;;;;;;;5093024;28;20081;-60
2023/05/14 06:11:39;;;;;;;2.42;2.33;;;;;;;;;;5093511;28;20066;-59
2023/05/14 06:14:04;;;;;;;1.75;1.65;;;;;;;;;;5094100;28;20372;-59
2023/05/14 06:16:29;;;;;;;2.10;2.00;;;;;;;;;;5094128;28;20028;-59
2023/05/14 06:18:55;;;;;;;2.08;1.98;;;;;;;;;;5092744;28;20051;-59
2023/05/14 06:21:20;;;;;;;2.42;2.30;;;;;;;;;;5091944;28;20054;-58
2023/05/14 06:23:46;;;;;;;2.60;2.40;;;;;;;;;;5099416;22;20059;-61
2023/05/14 06:26:11;;;;;;;2.25;2.05;;;;;;;;;;5133811;28;20371;-59
2023/05/14 06:28:36;;;;;;;2.20;2.10;;;;;;;;;;5134786;28;20114;-59
2023/05/14 06:31:02;;;;;;;2.17;2.08;;;;;;;;;;5138478;27;20523;-58
2023/05/14 06:33:30;;;;;;;1.35;1.35;;;;;;;;;;5134198;28;20075;-58
2023/05/14 06:35:57;;;;;;;1.98;1.88;;;;;;;;;;5135307;27;20114;-70
2023/05/14 06:38:23;;;;;;;3.35;1.85;;;;;;;;;;5134791;27;20038;-58
2023/05/14 06:40:48;;;;;;;1.90;1.70;;;;;;;;;;5137853;27;20031;-59
2023/05/14 06:43:13;;;;;;;1.73;1.63;;;;;;;;;;5137946;27;20035;-65
2023/05/14 06:45:39;;;;;;;1.58;1.48;;;;;;;;;;5138013;27;20023;-59
2023/05/14 06:48:04;;;;;;;1.70;1.60;;;;;;;;;;5119258;27;20027;-59
2023/05/14 06:50:30;;;;;;;1.80;1.55;;;;;;;;;;5138000;27;20031;-59
2023/05/14 06:52:57;;;;;;;1.50;1.40;;;;;;;;;;5138065;27;20048;-61
2023/05/14 06:55:22;;;;;;;1.90;1.80;;;;;;;;;;5144705;27;20425;-62
2023/05/14 06:57:49;;;;;;;1.77;1.67;;;;;;;;;;5159049;27;20023;-62
2023/05/14 07:00:15;;;;;;;1.75;1.65;;;;;;;;;;5158512;27;20492;-62
2023/05/14 07:02:40;;;;;;;1.40;1.30;;;;;;;;;;5139992;27;20102;-61
2023/05/14 07:05:07;;;;;;;1.80;1.70;;;;;;;;;;5158722;27;20027;-61
2023/05/14 07:07:32;;;;;;;2.97;1.38;;;;;;;;;;5159101;27;20022;-61
2023/05/14 07:09:58;;;;;;;1.67;1.55;;;;;;;;;;5158538;27;20035;-61
2023/05/14 07:12:23;;;;;;;1.98;1.77;;;;;;;;;;5158682;27;20082;-62
2023/05/14 07:14:49;;;;;;;1.73;1.63;;;;;;;;;;5157779;27;20030;-58
2023/05/14 07:17:14;;;;;;;1.90;1.58;;;;;;;;;;5158557;27;20070;-58
2023/05/14 07:19:40;;;;;;;2.67;1.73;;;;;;;;;;5123003;27;20057;-59
2023/05/14 07:22:05;;;;;;;2.10;1.90;;;;;;;;;;5139717;27;20453;-58
2023/05/14 07:24:30;;;;;;;2.28;1.65;;;;;;;;;;5143137;27;20096;-58
2023/05/14 07:26:56;;;;;;;2.33;2.03;;;;;;;;;;5137338;27;20092;-58
2023/05/14 07:29:22;;;;;;;1.83;1.73;;;;;;;;;;5135531;27;20027;-58
2023/05/14 07:31:47;;;;;;;2.00;1.90;;;;;;;;;;5136546;27;20059;-58
2023/05/14 07:34:12;;;;;;;2.10;1.95;;;;;;;;;;5137097;27;20050;-58
2023/05/14 07:36:38;;;;;;;2.03;1.92;;;;;;;;;;5119074;27;20092;-58
2023/05/14 07:39:03;;;;;;;1.75;1.65;;;;;;;;;;5118681;27;20031;-58
2023/05/14 07:41:29;;;;;;;1.70;1.60;;;;;;;;;;5122137;27;20402;-58
2023/05/14 07:43:55;;;;;;;1.80;1.70;;;;;;;;;;5138930;27;20075;-58
2023/05/14 07:46:20;;;;;;;2.42;2.22;;;;;;;;;;5157312;27;20015;-58
2023/05/14 07:48:46;;;;;;;4.55;3.20;;;;;;;;;;5145335;27;20035;-59
2023/05/14 07:51:11;;;;;;;2.47;2.28;;;;;;;;;;5137368;27;20033;-61
2023/05/14 07:53:36;;;;;;;2.60;2.38;;;;;;;;;;5118614;27;20447;-61
2023/05/14 07:56:02;;;;;;;2.53;2.42;;;;;;;;;;5122698;27;20030;-59
2023/05/14 07:58:27;;;;;;;3.67;2.33;;;;;;;;;;5157428;27;20019;-59
2023/05/14 08:00:53;;;;;;;1.90;1.80;;;;;;;;;;5157352;27;20023;-62
2023/05/14 08:03:18;;;;;;;1.75;1.65;;;;;;;;;;5154009;27;20057;-58
2023/05/14 08:05:44;;;;;;;3.38;1.63;;;;;;;;;;5136744;27;20034;-58
2023/05/14 08:08:09;;;;;;;1.60;1.50;;;;;;;;;;5136884;27;20382;-58
2023/05/14 08:10:35;;;;;;;1.80;1.70;;;;;;;;;;5151464;27;20034;-58
2023/05/14 08:13:01;;;;;;;1.63;1.50;;;;;;;;;;5139077;27;20031;-62
2023/05/14 08:15:27;;;;;;;1.80;1.70;;;;;;;;;;5148432;27;20035;-59
2023/05/14 08:17:52;;;;;;;4.72;1.75;;;;;;;;;;5136853;27;20076;-58
2023/05/14 08:20:18;;;;;;;1.40;1.30;;;;;;;;;;5136095;27;20019;-61
2023/05/14 08:22:43;;;;;;;1.70;1.60;;;;;;;;;;5136920;27;20052;-62
2023/05/14 08:25:09;;;;;;;1.70;1.60;;;;;;;;;;5135795;27;20070;-62
2023/05/14 08:27:34;;;;;;;2.35;1.83;;;;;;;;;;5136359;27;20027;-62
2023/05/14 08:29:59;;;;;;;2.10;2.00;;;;;;;;;;5136195;27;20534;-62
2023/05/14 08:32:25;;;;;;;2.00;1.90;;;;;;;;;;5135884;27;20019;-62
2023/05/14 08:34:51;;;;;;;2.53;1.77;;;;;;;;;;5135467;27;20461;-64
2023/05/14 08:37:16;;;;;;;2.22;1.92;;;;;;;;;;5135822;27;20093;-62
2023/05/14 08:39:45;;;;;;;5.45;3.40;;;;;;;;;;5117281;27;20086;-62
2023/05/14 08:42:12;;;;;;;2.30;2.08;;;;;;;;;;5135514;27;20038;-62
2023/05/14 08:44:43;;;;;;;2.47;2.28;;;;;;;;;;5135541;27;20081;-62
2023/05/14 08:47:10;;;;;;;5.68;2.15;;;;;;;;;;5134744;27;20031;-62
2023/05/14 08:49:43;;;;;;;4.22;2.88;;;;;;;;;;5137239;27;20022;-62
2023/05/14 08:52:10;;;;;;;2.75;2.50;;;;;;;;;;5137994;27;20071;-62
2023/05/14 08:54:36;;;;;;;3.05;2.75;;;;;;;;;;5156239;27;20130;-62
2023/05/14 08:57:05;;;;;;;5.57;2.95;;;;;;;;;;5156184;27;20481;-62
2023/05/14 08:59:31;;;;;;;;;;;;;;;;;;5121202;27;20038;-61
2023/05/14 09:01:59;;;;;;;4.13;3.25;;;;;;;;;;5116512;27;19907;-62
2023/05/14 09:04:26;;;;;;;2.92;2.60;;;;;;;;;;5135780;27;20028;-62
2023/05/14 09:06:54;;;;;;;2.60;2.40;;;;;;;;;;5100639;27;20038;-62
2023/05/14 09:09:21;;;;;;;3.05;2.80;;;;;;;;;;5135238;27;20119;-61
2023/05/14 09:11:48;;;;;;;3.58;2.45;;;;;;;;;;5135467;27;20031;-62
2023/05/14 09:14:14;;;;;;;2.92;2.72;;;;;;;;;;5135222;27;20071;-62
2023/05/14 09:16:46;;;;;;;2.85;2.65;;;;;;;;;;5153009;27;20061;-62
2023/05/14 09:19:12;;;;;;;2.70;2.50;;;;;;;;;;5154393;27;20014;-62
2023/05/14 09:21:39;;;;;;;3.75;2.38;;;;;;;;;;5115748;27;20038;-62
2023/05/14 09:24:04;;;;;;;2.70;2.50;;;;;;;;;;5154037;27;20080;-61
2023/05/14 09:26:34;;;;;;;2.70;2.50;;;;;;;;;;5154252;27;20018;-62
2023/05/14 09:29:03;;;;;;;2.85;2.53;;;;;;;;;;5151137;27;20030;-62
2023/05/14 09:31:30;;;;;;;3.30;2.20;;;;;;;;;;5116773;27;20020;-62
2023/05/14 09:33:55;;;;;;;3.08;2.25;;;;;;;;;;5116794;27;20030;-58
2023/05/14 09:36:21;;;;;;;2.50;2.30;;;;;;;;;;5115805;27;20031;-58
2023/05/14 09:38:47;;;;;;;2.60;2.40;;;;;;;;;;5134762;27;20027;-58
2023/05/14 09:41:16;;;;;;;2.85;2.47;;;;;;;;;;5135026;27;20067;-58
2023/05/14 09:43:43;;;;;;;2.30;2.20;;;;;;;;;;5134945;27;20035;-58
2023/05/14 09:46:08;;;;;;;4.03;2.25;;;;;;;;;;5117262;27;20110;-58
2023/05/14 09:48:33;;;;;;;5.05;2.63;;;;;;;;;;5135061;27;20027;-58
2023/05/14 09:50:59;;;;;;;3.17;2.47;;;;;;;;;;5152017;27;20033;-58
2023/05/14 09:53:24;;;;;;;2.20;2.10;;;;;;;;;;5155572;27;20026;-59
2023/05/14 09:55:50;;;;;;;3.72;2.70;;;;;;;;;;5137288;27;20019;-58
2023/05/14 09:58:15;;;;;;;3.63;2.40;;;;;;;;;;5137518;27;20477;-58
2023/05/14 10:00:44;;;;;;;2.50;2.30;;;;;;;;;;5155316;27;20446;-59
2023/05/14 10:03:12;;;;;;;2.55;2.45;;;;;;;;;;5136078;27;20376;-59
2023/05/14 10:05:38;;;;;;;3.08;2.50;;;;;;;;;;5155233;27;20477;-59
2023/05/14 10:08:18;;;;;;;2.33;2.22;;;;;;;;;;5155982;27;20061;-59
2023/05/14 10:10:44;;;;;;;2.58;2.00;;;;;;;;;;5137420;27;20034;-59
2023/05/14 10:13:13;;;;;;;2.35;2.15;;;;;;;;;;5146846;27;20486;-59
2023/05/14 10:15:41;;;;;;;3.10;2.42;;;;;;;;;;5139013;27;20027;-58
2023/05/14 10:18:10;;;;;;;2.25;2.05;;;;;;;;;;5139007;27;20557;-58
2023/05/14 10:20:37;;;;;;;2.25;2.05;;;;;;;;;;5139148;27;20110;-59
2023/05/14 10:23:02;;;;;;;2.30;2.17;;;;;;;;;;5120692;27;20393;-60
2023/05/14 10:25:28;;;;;;;2.55;2.13;;;;;;;;;;5120640;27;20031;-59
2023/05/14 10:27:53;;;;;;;2.65;1.90;;;;;;;;;;5139072;27;20023;-58
2023/05/14 10:30:20;;;;;;;2.33;1.80;;;;;;;;;;5138778;27;20438;-58
2023/05/14 10:32:45;;;;;;;2.30;2.10;;;;;;;;;;5138414;27;20030;-58
2023/05/14 10:35:15;;;;;;;2.40;2.10;;;;;;;;;;5138312;27;20452;-59
2023/05/14 10:37:40;;;;;;;2.40;2.20;;;;;;;;;;5149238;27;20152;-59
2023/05/14 10:40:07;;;;;;;2.55;2.35;;;;;;;;;;5152921;22;20472;-59
2023/05/14 10:42:34;;;;;;;2.17;2.08;;;;;;;;;;5099721;28;20028;-59
2023/05/14 10:45:04;;;;;;;3.40;2.05;;;;;;;;;;5082915;28;20057;-59
2023/05/14 10:47:30;;;;;;;2.10;1.90;;;;;;;;;;5117877;28;20019;-59
2023/05/14 10:49:56;;;;;;;2.08;1.88;;;;;;;;;;5121108;27;20050;-58
2023/05/14 10:52:22;;;;;;;1.67;1.58;;;;;;;;;;5138511;27;20447;-59
2023/05/14 10:54:49;;;;;;;1.48;1.38;;;;;;;;;;5138327;27;20049;-59
2023/05/14 10:59:55;;;;;;;2.55;2.35;;;;;;;;;;5073771;28;20045;-59
2023/05/14 11:02:26;;;;;;;6.88;3.40;;;;;;;;;;5092852;28;20028;-61
2023/05/14 11:04:59;;;;;;;1.88;1.77;;;;;;;;;;5076758;28;20036;-62
2023/05/14 11:07:29;;;;;;;2.28;1.60;;;;;;;;;;5076446;28;20035;-61
2023/05/14 11:10:18;;;;;;;1.80;1.70;;;;;;;;;;5058686;28;20032;-62
2023/05/14 11:12:45;;;;;;;1.08;0.98;;;;;;;;;;5076118;28;20479;-62
2023/05/14 11:15:12;;;;;;;1.20;1.20;;;;;;;;;;5076263;28;20031;-61
2023/05/14 11:17:39;;;;;;;1.10;1.05;;;;;;;;;;5076315;28;20097;-61
2023/05/14 11:20:11;;;;;;;1.13;1.10;;;;;;;;;;5076393;28;20523;-58
2023/05/14 11:22:39;;;;;;;0.85;0.85;;;;;;;;;;5076441;28;20028;-59
2023/05/14 11:25:05;;;;;;;1.15;1.15;;;;;;;;;;5075312;28;20475;-61
2023/05/14 11:27:32;;;;;;;1.30;1.20;;;;;;;;;;5076261;28;20033;-58
2023/05/14 11:29:59;;;;;;;1.20;1.20;;;;;;;;;;5076204;28;20058;-58
2023/05/14 11:32:25;;;;;;;1.27;1.10;;;;;;;;;;5091869;28;20039;-59
2023/05/14 11:34:50;;;;;;;1.80;1.70;;;;;;;;;;5092364;28;20016;-58
2023/05/14 11:37:16;;;;;;;1.92;1.83;;;;;;;;;;5075993;28;20028;-58
2023/05/14 11:39:48;;;;;;;1.25;1.25;;;;;;;;;;5076321;28;20055;-61
2023/05/14 11:42:15;;;;;;;1.85;1.60;;;;;;;;;;5058575;28;20021;-59
2023/05/14 11:44:53;;;;;;;1.67;1.52;;;;;;;;;;5088403;22;20430;-58
2023/05/14 11:47:19;;;;;;;2.60;1.60;;;;;;;;;;5096264;28;20460;-58
2023/05/14 11:49:45;;;;;;;1.60;1.50;;;;;;;;;;5096258;28;20036;-59
2023/05/14 11:52:13;;;;;;;1.60;1.50;;;;;;;;;;5096110;28;20156;-58
2023/05/14 11:54:38;;;;;;;2.65;1.60;;;;;;;;;;5097238;28;20016;-58
2023/05/14 11:57:22;;;;;;;1.70;1.60;;;;;;;;;;5096172;28;20119;-59
2023/05/14 11:59:48;;;;;;;1.98;1.48;;;;;;;;;;5103268;28;20413;-58
2023/05/14 12:02:14;;;;;;;1.73;1.60;;;;;;;;;;5116686;28;20030;-58
2023/05/14 12:04:40;;;;;;;1.70;1.60;;;;;;;;;;5115832;28;20038;-59
2023/05/14 12:07:09;;;;;;;1.95;1.60;;;;;;;;;;5116712;28;20032;-58
2023/05/14 12:09:36;;;;;;;1.60;1.50;;;;;;;;;;5116661;28;20047;-58
2023/05/14 12:12:06;;;;;;;1.65;1.55;;;;;;;;;;5098202;28;20061;-59
2023/05/14 12:14:35;;;;;;;2.10;1.40;;;;;;;;;;5116447;28;20023;-58
2023/05/14 12:17:01;;;;;;;1.92;1.67;;;;;;;;;;5116252;28;20035;-59
2023/05/14 12:19:28;;;;;;;4.63;3.70;;;;;;;;;;5098152;28;20030;-59
2023/05/14 12:21:54;;;;;;;1.67;1.58;;;;;;;;;;5097415;28;20023;-59
2023/05/14 12:24:19;;;;;;;1.40;1.30;;;;;;;;;;5097389;28;20026;-58
2023/05/14 12:26:50;;;;;;;1.70;1.48;;;;;;;;;;5116334;28;20027;-58
2023/05/14 12:29:15;;;;;;;;;;;;;;;;;;5101662;28;20040;-59
2023/05/14 12:31:46;;;;;;;1.60;1.50;;;;;;;;;;5095835;28;19915;-58
2023/05/14 12:34:11;;;;;;;3.78;1.60;;;;;;;;;;5077086;28;20032;-59
2023/05/14 12:36:37;;;;;;;18.35;2.05;;;;;;;;;;5094489;28;20103;-58
2023/05/14 12:39:02;;;;;;;1.65;1.55;;;;;;;;;;5095695;28;20024;-58
2023/05/14 12:41:31;;;;;;;1.42;1.33;;;;;;;;;;5077552;28;20035;-58
2023/05/14 12:44:03;;;;;;;4.32;1.63;;;;;;;;;;5109759;22;20048;-61
2023/05/14 12:46:28;;;;;;;1.75;1.65;;;;;;;;;;5115549;28;20391;-62
2023/05/14 12:48:53;;;;;;;3.17;1.40;;;;;;;;;;5115197;28;20032;-62
2023/05/14 12:51:19;;;;;;;2.45;1.60;;;;;;;;;;5115548;28;20031;-62
2023/05/14 12:53:44;;;;;;;2.45;1.33;;;;;;;;;;5114902;28;20027;-62
2023/05/14 12:56:10;;;;;;;1.42;1.33;;;;;;;;;;5093738;28;20371;-62
2023/05/14 12:58:36;;;;;;;2.28;1.42;;;;;;;;;;5106412;28;20028;-62
2023/05/14 13:01:01;;;;;;;1.42;1.35;;;;;;;;;;5098435;28;20502;-62
2023/05/14 13:03:27;;;;;;;4.10;1.60;;;;;;;;;;5076448;28;20496;-62
2023/05/14 13:05:52;;;;;;;1.35;1.25;;;;;;;;;;5077138;28;20027;-62
2023/05/14 13:08:20;;;;;;;11.48;1.98;;;;;;;;;;5094480;28;20030;-61
2023/05/14 13:10:46;;;;;;;1.60;1.50;;;;;;;;;;5094504;28;20129;-62
2023/05/14 13:13:13;;;;;;;1.50;1.10;;;;;;;;;;5094964;28;20374;-62
2023/05/14 13:15:39;;;;;;;30.02;2.47;;;;;;;;;;5114621;28;20055;-62
2023/05/14 13:18:04;;;;;;;8.65;1.75;;;;;;;;;;5093861;28;20055;-62
2023/05/14 13:20:30;;;;;;;2.00;1.33;;;;;;;;;;5094953;28;20028;-61
2023/05/14 13:22:55;;;;;;;2.80;1.40;;;;;;;;;;5094513;28;20020;-61
2023/05/14 13:25:21;;;;;;;20.58;2.20;;;;;;;;;;5076341;28;20028;-61
2023/05/14 13:27:49;;;;;;;5.15;2.75;;;;;;;;;;5086106;28;20470;-62
2023/05/14 13:30:15;;;;;;;3.42;1.60;;;;;;;;;;5114723;28;20019;-61
2023/05/14 13:32:41;;;;;;;6.43;2.20;;;;;;;;;;5096708;28;20019;-61
2023/05/14 13:35:08;;;;;;;2.00;1.75;;;;;;;;;;5114668;28;20045;-61
2023/05/14 13:37:34;;;;;;;2.20;1.50;;;;;;;;;;5112850;28;20024;-62
2023/05/14 13:39:59;;;;;;;1.33;1.33;;;;;;;;;;5099183;28;20077;-62
2023/05/14 13:42:24;;;;;;;1.50;1.40;;;;;;;;;;5094234;28;20387;-62
2023/05/14 13:44:49;;;;;;;3.85;1.92;;;;;;;;;;5093668;28;20491;-62
2023/05/14 13:47:17;;;;;;;1.73;1.42;;;;;;;;;;5094097;28;20115;-62
2023/05/14 13:49:42;;;;;;;1.45;1.35;;;;;;;;;;5094028;28;20039;-59
2023/05/14 13:52:08;;;;;;;2.15;1.55;;;;;;;;;;5093710;28;20471;-61
2023/05/14 13:54:34;;;;;;;1.05;1.05;;;;;;;;;;5094075;28;20382;-58
2023/05/14 13:57:00;;;;;;;1.63;1.40;;;;;;;;;;5078098;28;20044;-61
2023/05/14 13:59:26;;;;;;;1.17;1.15;;;;;;;;;;5097972;28;20067;-61
2023/05/14 14:01:52;;;;;;;1.52;1.42;;;;;;;;;;5093826;28;20032;-62
2023/05/14 14:04:18;;;;;;;1.20;1.15;;;;;;;;;;5093672;28;20054;-62
2023/05/14 14:06:44;;;;;;;1.65;1.50;;;;;;;;;;5093861;28;20012;-62
2023/05/14 14:09:12;;;;;;;2.60;2.40;;;;;;;;;;5073696;28;20068;-62
2023/05/14 14:11:37;;;;;;;3.08;1.50;;;;;;;;;;5073376;28;20471;-62
2023/05/14 14:14:03;;;;;;;3.05;1.40;;;;;;;;;;5073659;28;20090;-62
2023/05/14 14:16:28;;;;;;;1.25;1.15;;;;;;;;;;5073327;28;20111;-61
2023/05/14 14:18:53;;;;;;;1.50;1.40;;;;;;;;;;5092047;28;20008;-62
2023/05/14 14:21:19;;;;;;;3.25;2.20;;;;;;;;;;5075410;28;20149;-62
2023/05/14 14:23:45;;;;;;;2.17;1.83;;;;;;;;;;5093546;28;20115;-62
2023/05/14 14:26:11;;;;;;;2.40;1.70;;;;;;;;;;5094052;28;20066;-61
2023/05/14 14:28:36;;;;;;;1.73;1.33;;;;;;;;;;5093791;28;20039;-62
2023/05/14 14:31:01;;;;;;;1.20;1.20;;;;;;;;;;5075429;28;20060;-61
2023/05/14 14:33:28;;;;;;;1.52;1.42;;;;;;;;;;5093667;28;20479;-62
2023/05/14 14:35:53;;;;;;;2.25;2.15;;;;;;;;;;5093409;28;20095;-62
2023/05/14 14:38:18;;;;;;;1.08;1.05;;;;;;;;;;5075900;28;20104;-62
2023/05/14 14:40:45;;;;;;;1.40;1.30;;;;;;;;;;5075654;28;20024;-62